Time;durP1;ratioP1;P1;durP2;ratioP2;P2;SDS_P1;SDS_P2;PMS_P1;PMS_P2;Temp;Humidity;BMP_temperature;BMP_pressure;BME280_temperature;BME280_humidity;BME280_pressure;Samples;Min_cycle;Max_cycle;Signal;HPM_P1;HPM_P2
2023/10/01 00:03:45;;;;;;;20.88;6.63;;;;;;;;;;8294394;28;20062;-91
2023/10/01 00:08:08;;;;;;;19.77;6.75;;;;;;;;;;8299502;28;20045;-94
2023/10/01 00:16:32;;;;;;;22.20;9.10;;;;;;;;;;8301346;28;20050;-91
2023/10/01 00:20:36;;;;;;;22.30;8.93;;;;;;;;;;8307246;28;20117;-93
2023/10/01 00:24:41;;;;;;;18.77;9.27;;;;;;;;;;8307980;28;20050;-90
2023/10/01 00:28:44;;;;;;;21.95;8.30;;;;;;;;;;8304957;28;20052;-93
2023/10/01 00:32:48;;;;;;;19.90;8.15;;;;;;;;;;8289553;28;20053;-93
2023/10/01 00:36:52;;;;;;;23.92;8.50;;;;;;;;;;8310169;28;20481;-95
2023/10/01 00:40:59;;;;;;;18.15;8.55;;;;;;;;;;8306942;28;20106;-95
2023/10/01 00:45:03;;;;;;;25.27;6.35;;;;;;;;;;8306062;28;20073;-95
2023/10/01 00:49:09;;;;;;;19.95;8.23;;;;;;;;;;8278939;28;20092;-91
2023/10/01 00:53:12;;;;;;;23.05;7.72;;;;;;;;;;8306897;28;20053;-94
2023/10/01 00:57:21;;;;;;;17.55;7.13;;;;;;;;;;8306688;28;20068;-94
2023/10/01 01:01:27;;;;;;;13.50;6.97;;;;;;;;;;8288856;28;20054;-95
2023/10/01 01:05:36;;;;;;;22.75;7.22;;;;;;;;;;8305879;28;20473;-92
2023/10/01 01:13:57;;;;;;;17.58;8.13;;;;;;;;;;8302962;28;20208;-94
2023/10/01 01:18:06;;;;;;;20.50;7.90;;;;;;;;;;8290514;28;20136;-90
2023/10/01 01:22:14;;;;;;;18.35;6.53;;;;;;;;;;8306102;28;20077;-96
2023/10/01 01:26:22;;;;;;;17.45;6.75;;;;;;;;;;8305039;28;20129;-95
2023/10/01 01:30:29;;;;;;;16.45;7.40;;;;;;;;;;8304422;28;20038;-94
2023/10/01 01:34:40;;;;;;;18.38;7.47;;;;;;;;;;8304321;28;20038;-94
2023/10/01 01:39:12;;;;;;;24.00;8.35;;;;;;;;;;8303883;28;20486;-95
2023/10/01 01:43:22;;;;;;;17.05;6.47;;;;;;;;;;8286140;28;20141;-95
2023/10/01 01:47:26;;;;;;;22.83;7.82;;;;;;;;;;8302444;28;20042;-95
2023/10/01 01:51:29;;;;;;;16.40;7.05;;;;;;;;;;8285827;28;20056;-94
2023/10/01 01:55:35;;;;;;;16.60;7.50;;;;;;;;;;8270902;28;20418;-93
2023/10/01 01:59:43;;;;;;;16.25;7.35;;;;;;;;;;8270129;28;20077;-94
2023/10/01 02:03:51;;;;;;;18.90;7.72;;;;;;;;;;8270387;28;20501;-95
2023/10/01 02:07:54;;;;;;;19.40;7.65;;;;;;;;;;8270013;28;20046;-94
2023/10/01 02:11:57;;;;;;;22.48;7.95;;;;;;;;;;8269736;28;20077;-93
2023/10/01 02:16:18;;;;;;;17.23;7.50;;;;;;;;;;8252936;28;20128;-93
2023/10/01 02:20:33;;;;;;;23.98;7.50;;;;;;;;;;8269213;28;20113;-93
2023/10/01 02:24:44;;;;;;;15.63;7.80;;;;;;;;;;8269398;28;20549;-94
2023/10/01 02:28:47;;;;;;;18.83;7.60;;;;;;;;;;8268981;28;20057;-92
2023/10/01 02:37:35;;;;;;;24.40;7.97;;;;;;;;;;8253422;28;20056;-92
2023/10/01 02:41:40;;;;;;;28.38;7.78;;;;;;;;;;8268429;28;20561;-94
2023/10/01 02:45:50;;;;;;;18.67;7.47;;;;;;;;;;8268120;28;20145;-93
2023/10/01 02:49:59;;;;;;;17.60;8.38;;;;;;;;;;8268652;28;20050;-93
2023/10/01 02:54:05;;;;;;;26.13;8.13;;;;;;;;;;8268432;28;20050;-93
2023/10/01 02:58:17;;;;;;;18.20;8.85;;;;;;;;;;8300844;28;20057;-94
2023/10/01 03:02:24;;;;;;;24.90;8.45;;;;;;;;;;8300451;28;20091;-93
2023/10/01 03:06:33;;;;;;;20.88;7.70;;;;;;;;;;8288859;28;20046;-93
2023/10/01 03:10:38;;;;;;;17.45;7.32;;;;;;;;;;8283809;28;20046;-93
2023/10/01 03:14:43;;;;;;;20.45;7.43;;;;;;;;;;8282474;28;20083;-91
2023/10/01 03:18:49;;;;;;;21.58;8.15;;;;;;;;;;8299487;28;20073;-93
2023/10/01 03:23:01;;;;;;;20.88;7.80;;;;;;;;;;8300236;28;20065;-93
2023/10/01 03:27:18;;;;;;;21.13;7.25;;;;;;;;;;8299848;28;20074;-92
2023/10/01 03:31:22;;;;;;;11.98;5.65;;;;;;;;;;8288097;28;20052;-93
2023/10/01 03:35:25;;;;;;;14.52;6.45;;;;;;;;;;8282624;28;20053;-93
2023/10/01 03:39:36;;;;;;;11.50;5.03;;;;;;;;;;8283176;28;20057;-91
2023/10/01 03:43:47;;;;;;;14.35;5.82;;;;;;;;;;8299088;28;20052;-93
2023/10/01 03:48:08;;;;;;;16.58;5.90;;;;;;;;;;8303616;28;20050;-92
2023/10/01 03:52:14;;;;;;;19.23;6.78;;;;;;;;;;8305110;28;20096;-94
2023/10/01 03:56:20;;;;;;;17.98;7.13;;;;;;;;;;8305753;28;20383;-92
2023/10/01 04:00:31;;;;;;;19.48;7.38;;;;;;;;;;8305319;28;20120;-93
2023/10/01 04:04:56;;;;;;;18.50;7.10;;;;;;;;;;8288713;28;20111;-91
2023/10/01 04:09:06;;;;;;;15.88;6.85;;;;;;;;;;8288467;28;20398;-92
2023/10/01 04:13:13;;;;;;;19.03;7.13;;;;;;;;;;8305097;28;20037;-92
2023/10/01 04:17:18;;;;;;;20.05;7.57;;;;;;;;;;8288040;28;20050;-92
2023/10/01 04:21:26;;;;;;;18.00;6.95;;;;;;;;;;8304486;28;20046;-93
2023/10/01 04:25:38;;;;;;;18.13;7.35;;;;;;;;;;8307417;28;20071;-91
2023/10/01 04:29:46;;;;;;;17.10;7.82;;;;;;;;;;8312881;28;20050;-92
2023/10/01 04:33:52;;;;;;;13.30;6.75;;;;;;;;;;8324795;28;20046;-90
2023/10/01 04:37:55;;;;;;;18.02;6.50;;;;;;;;;;8323238;28;20045;-91
2023/10/01 04:42:00;;;;;;;14.35;6.45;;;;;;;;;;8332295;28;20046;-92
2023/10/01 04:46:08;;;;;;;17.95;7.43;;;;;;;;;;8312928;28;20069;-92
2023/10/01 04:54:31;;;;;;;;;;;;;;;;;;;;;
2023/10/01 04:58:38;;;;;;;15.82;7.43;;;;;;;;;;8327963;23;20054;-88
2023/10/01 05:02:43;;;;;;;19.15;6.80;;;;;;;;;;8366438;28;20098;-88
2023/10/01 05:06:59;;;;;;;15.15;6.85;;;;;;;;;;8378652;28;20479;-89
2023/10/01 05:11:10;;;;;;;21.30;6.93;;;;;;;;;;8359456;28;20101;-89
2023/10/01 05:15:24;;;;;;;22.67;7.68;;;;;;;;;;8386110;28;20037;-87
2023/10/01 05:19:29;;;;;;;16.90;8.75;;;;;;;;;;8355943;28;20127;-89
2023/10/01 05:23:48;;;;;;;24.85;12.50;;;;;;;;;;8365705;28;20484;-91
2023/10/01 05:27:54;;;;;;;27.75;15.52;;;;;;;;;;8383810;28;20051;-90
2023/10/01 05:32:08;;;;;;;;;;;;;;;;;;;;;
2023/10/01 05:36:23;;;;;;;16.85;7.25;;;;;;;;;;8381387;28;20213;-88
2023/10/01 05:40:29;;;;;;;20.98;7.80;;;;;;;;;;8348449;28;20439;-90
2023/10/01 05:44:34;;;;;;;14.40;6.65;;;;;;;;;;8369404;28;20061;-89
2023/10/01 05:48:39;;;;;;;16.95;7.15;;;;;;;;;;8372056;28;20052;-90
2023/10/01 05:52:45;;;;;;;16.13;7.85;;;;;;;;;;8379324;28;20075;-88
2023/10/01 05:56:48;;;;;;;18.40;9.30;;;;;;;;;;8388329;28;20124;-89
2023/10/01 06:01:05;;;;;;;16.33;9.20;;;;;;;;;;8363868;28;20049;-88
2023/10/01 06:05:25;;;;;;;15.63;9.52;;;;;;;;;;8365162;28;20049;-90
2023/10/01 06:09:33;;;;;;;17.98;8.45;;;;;;;;;;8387724;28;20055;-88
2023/10/01 06:13:48;;;;;;;23.17;12.95;;;;;;;;;;8388742;28;20068;-93
2023/10/01 06:18:00;;;;;;;41.28;21.17;;;;;;;;;;8386714;28;20048;-91
2023/10/01 06:22:22;;;;;;;62.60;33.97;;;;;;;;;;8388374;28;20055;-90
2023/10/01 06:26:36;;;;;;;26.30;15.65;;;;;;;;;;8387068;28;20484;-90
2023/10/01 06:30:40;;;;;;;23.52;12.70;;;;;;;;;;8389111;28;20048;-91
2023/10/01 06:34:45;;;;;;;16.42;6.82;;;;;;;;;;8388143;28;20208;-90
2023/10/01 06:38:49;;;;;;;14.00;6.35;;;;;;;;;;8376739;28;20629;-91
2023/10/01 06:42:55;;;;;;;12.65;7.03;;;;;;;;;;8374265;28;20463;-90
2023/10/01 06:46:58;;;;;;;13.88;6.93;;;;;;;;;;8369971;28;20056;-91
2023/10/01 06:51:37;;;;;;;14.90;7.40;;;;;;;;;;8388599;28;20052;-91
2023/10/01 06:55:48;;;;;;;14.18;7.80;;;;;;;;;;8369199;28;20562;-91
2023/10/01 07:00:22;;;;;;;13.65;9.65;;;;;;;;;;8378406;28;20069;-91
2023/10/01 07:04:35;;;;;;;13.90;7.65;;;;;;;;;;8379307;28;20567;-90
2023/10/01 07:08:43;;;;;;;21.88;11.85;;;;;;;;;;8369320;23;20050;-91
2023/10/01 07:12:57;;;;;;;16.45;9.07;;;;;;;;;;8280053;28;20461;-89
2023/10/01 07:17:18;;;;;;;16.10;8.10;;;;;;;;;;8278810;28;20049;-90
2023/10/01 07:21:22;;;;;;;12.60;8.25;;;;;;;;;;8298956;28;20069;-87
2023/10/01 07:25:37;;;;;;;14.98;7.43;;;;;;;;;;8319614;28;20543;-91
2023/10/01 07:29:42;;;;;;;19.88;12.32;;;;;;;;;;8309691;28;20075;-89
2023/10/01 07:33:46;;;;;;;15.07;7.07;;;;;;;;;;8300582;28;20111;-90
2023/10/01 07:37:49;;;;;;;12.18;7.35;;;;;;;;;;8273509;28;20449;-90
2023/10/01 07:41:52;;;;;;;13.77;6.60;;;;;;;;;;8270863;28;20080;-90
2023/10/01 07:46:08;;;;;;;19.38;7.18;;;;;;;;;;8297024;28;20100;-89
2023/10/01 07:50:16;;;;;;;15.15;7.22;;;;;;;;;;8282240;28;20046;-89
2023/10/01 07:54:22;;;;;;;47.17;24.27;;;;;;;;;;8297965;28;20041;-90
2023/10/01 07:58:47;;;;;;;17.65;9.43;;;;;;;;;;8314486;28;20049;-91
2023/10/01 08:07:30;;;;;;;13.13;5.38;;;;;;;;;;8308402;28;20152;-88
2023/10/01 08:16:02;;;;;;;16.10;5.10;;;;;;;;;;8302268;28;20501;-91
2023/10/01 08:20:21;;;;;;;14.30;4.40;;;;;;;;;;8296139;28;20046;-92
2023/10/01 08:24:33;;;;;;;13.20;5.63;;;;;;;;;;8274092;28;20436;-90
2023/10/01 08:28:43;;;;;;;11.20;4.88;;;;;;;;;;8279069;28;20520;-89
2023/10/01 08:33:18;;;;;;;12.93;5.43;;;;;;;;;;8297070;28;20409;-92
2023/10/01 08:37:23;;;;;;;12.80;4.88;;;;;;;;;;8284877;28;20066;-92
2023/10/01 08:41:50;;;;;;;15.15;5.50;;;;;;;;;;8297905;28;20469;-91
2023/10/01 08:45:53;;;;;;;16.30;6.03;;;;;;;;;;8297026;28;20041;-92
2023/10/01 08:49:57;;;;;;;10.63;4.38;;;;;;;;;;8301474;28;20157;-93
2023/10/01 08:54:14;;;;;;;12.32;4.70;;;;;;;;;;8297526;28;20107;-89
2023/10/01 08:58:27;;;;;;;13.95;4.90;;;;;;;;;;8270626;28;20053;-90
2023/10/01 09:02:38;;;;;;;13.45;5.10;;;;;;;;;;8294967;28;20129;-94
2023/10/01 09:11:18;;;;;;;10.90;4.57;;;;;;;;;;8287467;28;20344;-88
2023/10/01 09:15:43;;;;;;;11.95;4.38;;;;;;;;;;8296510;28;20069;-91
2023/10/01 09:20:06;;;;;;;10.23;4.35;;;;;;;;;;8279040;28;20054;-92
2023/10/01 09:24:38;;;;;;;13.45;3.92;;;;;;;;;;8287064;28;20473;-92
2023/10/01 09:28:42;;;;;;;12.82;4.10;;;;;;;;;;8284043;28;20133;-92
2023/10/01 09:32:49;;;;;;;10.55;4.25;;;;;;;;;;8291274;28;20041;-91
2023/10/01 09:36:53;;;;;;;10.23;3.95;;;;;;;;;;8291387;28;20073;-90
2023/10/01 09:40:56;;;;;;;9.75;4.05;;;;;;;;;;8292039;28;20597;-89
2023/10/01 09:45:24;;;;;;;7.78;3.20;;;;;;;;;;8286482;28;20078;-91
2023/10/01 09:49:31;;;;;;;10.40;3.78;;;;;;;;;;8286512;28;20054;-91
2023/10/01 09:53:43;;;;;;;9.85;3.85;;;;;;;;;;8271367;28;20049;-90
2023/10/01 09:57:48;;;;;;;9.43;3.47;;;;;;;;;;8282928;28;20053;-90
2023/10/01 10:01:52;;;;;;;9.70;3.17;;;;;;;;;;8277898;28;20050;-92
2023/10/01 10:05:58;;;;;;;9.13;3.13;;;;;;;;;;8278787;28;20058;-93
2023/10/01 10:10:01;;;;;;;9.38;3.75;;;;;;;;;;8264332;28;20049;-93
2023/10/01 10:14:56;;;;;;;9.48;3.10;;;;;;;;;;8293760;28;20050;-92
2023/10/01 10:19:21;;;;;;;9.30;3.58;;;;;;;;;;8281984;28;20478;-93
2023/10/01 10:23:30;;;;;;;8.75;2.53;;;;;;;;;;8287536;28;20045;-91
2023/10/01 10:28:06;;;;;;;10.02;3.78;;;;;;;;;;8295987;28;20046;-92
2023/10/01 10:32:10;;;;;;;8.02;2.10;;;;;;;;;;8235101;28;20474;-90
2023/10/01 10:36:54;;;;;;;8.77;2.47;;;;;;;;;;8271936;28;20046;-90
2023/10/01 10:41:10;;;;;;;9.38;2.72;;;;;;;;;;8291719;28;20080;-88
2023/10/01 10:45:21;;;;;;;8.32;3.05;;;;;;;;;;8265142;28;20069;-90
2023/10/01 10:49:23;;;;;;;7.70;2.65;;;;;;;;;;8280221;28;20056;-89
2023/10/01 10:53:42;;;;;;;7.70;2.45;;;;;;;;;;8273152;28;20103;-90
2023/10/01 10:57:49;;;;;;;6.63;2.67;;;;;;;;;;8285881;28;20398;-93
2023/10/01 11:01:56;;;;;;;10.23;2.90;;;;;;;;;;8266495;28;20082;-91
2023/10/01 11:06:15;;;;;;;7.35;2.35;;;;;;;;;;8283648;28;20061;-92
2023/10/01 11:10:18;;;;;;;9.85;3.20;;;;;;;;;;8289941;28;20061;-92
2023/10/01 11:14:25;;;;;;;7.18;2.50;;;;;;;;;;8290292;28;20053;-92
2023/10/01 11:18:28;;;;;;;11.77;2.75;;;;;;;;;;8284890;28;20053;-92
2023/10/01 11:22:45;;;;;;;9.30;2.72;;;;;;;;;;8276791;28;20050;-92
2023/10/01 11:27:18;;;;;;;7.90;2.60;;;;;;;;;;8288290;28;20053;-91
2023/10/01 11:31:26;;;;;;;7.93;2.50;;;;;;;;;;8293227;28;20049;-92
2023/10/01 11:35:33;;;;;;;5.22;2.38;;;;;;;;;;8272118;28;20049;-92
2023/10/01 11:39:40;;;;;;;8.00;2.42;;;;;;;;;;8270495;28;20062;-93
2023/10/01 11:43:48;;;;;;;5.40;2.45;;;;;;;;;;8289582;28;20074;-92
2023/10/01 11:48:05;;;;;;;7.28;2.53;;;;;;;;;;8271678;28;20054;-91
2023/10/01 11:52:21;;;;;;;8.80;2.60;;;;;;;;;;8274524;28;20052;-93
2023/10/01 11:56:32;;;;;;;8.20;2.67;;;;;;;;;;8290404;28;20050;-92
2023/10/01 12:04:57;;;;;;;6.20;1.67;;;;;;;;;;8293299;28;20120;-92
2023/10/01 12:09:00;;;;;;;6.65;2.13;;;;;;;;;;8295263;28;20080;-92
2023/10/01 12:13:07;;;;;;;5.97;1.95;;;;;;;;;;8302636;28;20050;-93
2023/10/01 12:17:10;;;;;;;6.10;2.05;;;;;;;;;;8286558;28;20490;-93
2023/10/01 12:25:53;;;;;;;;;;;;;;;;;;;;;
2023/10/01 12:29:59;;;;;;;6.00;2.20;;;;;;;;;;8298836;28;20050;-92
2023/10/01 12:34:17;;;;;;;7.82;2.15;;;;;;;;;;8282238;28;20077;-92
2023/10/01 12:45:13;;;;;;;9.15;2.30;;;;;;;;;;8200711;29;20054;-93
2023/10/01 12:49:59;;;;;;;5.82;2.20;;;;;;;;;;8200314;29;20079;-93
2023/10/01 12:54:18;;;;;;;6.10;2.20;;;;;;;;;;8298905;28;20058;-92
2023/10/01 12:58:29;;;;;;;4.95;2.10;;;;;;;;;;8295560;28;20125;-94
2023/10/01 13:02:42;;;;;;;6.70;2.40;;;;;;;;;;8291778;28;20046;-93
2023/10/01 13:06:46;;;;;;;7.00;2.25;;;;;;;;;;8291284;28;20045;-89
2023/10/01 13:10:53;;;;;;;6.43;2.20;;;;;;;;;;8294904;28;20073;-93
2023/10/01 13:19:22;;;;;;;5.78;2.03;;;;;;;;;;8288292;28;20054;-93
2023/10/01 13:23:25;;;;;;;7.97;2.03;;;;;;;;;;8281867;28;20061;-93
2023/10/01 13:27:31;;;;;;;6.78;2.13;;;;;;;;;;8293413;28;20128;-93
2023/10/01 13:31:51;;;;;;;6.13;2.42;;;;;;;;;;8287483;28;20456;-93
2023/10/01 13:35:56;;;;;;;5.85;2.30;;;;;;;;;;8292900;28;20429;-92
2023/10/01 13:40:13;;;;;;;5.78;1.83;;;;;;;;;;8294801;28;20496;-94
2023/10/01 14:19:17;;;;;;;7.88;2.28;;;;;;;;;;8229526;28;20121;-95
2023/10/01 14:23:26;;;;;;;5.25;2.03;;;;;;;;;;8235170;28;20508;-93
2023/10/01 14:27:30;;;;;;;6.93;2.20;;;;;;;;;;8234134;28;20050;-96
2023/10/01 14:31:48;;;;;;;6.15;2.38;;;;;;;;;;8236744;28;20047;-95
2023/10/01 14:35:53;;;;;;;7.15;2.20;;;;;;;;;;8233958;28;20505;-95
2023/10/01 14:39:57;;;;;;;8.27;2.83;;;;;;;;;;8259076;28;20057;-93
2023/10/01 14:44:13;;;;;;;10.10;2.55;;;;;;;;;;8258646;28;20054;-94
2023/10/01 14:53:39;;;;;;;8.23;2.45;;;;;;;;;;8639101;23;20137;-91
2023/10/01 14:58:35;;;;;;;4.85;2.15;;;;;;;;;;8270537;28;20154;-92
2023/10/01 15:13:40;;;;;;;8.05;2.40;;;;;;;;;;8265423;23;20078;-92
2023/10/01 15:18:17;;;;;;;8.50;2.60;;;;;;;;;;8573023;23;20034;-93
2023/10/01 15:23:15;;;;;;;6.87;2.70;;;;;;;;;;8220015;28;20098;-90
2023/10/01 15:28:01;;;;;;;7.28;2.53;;;;;;;;;;8238200;28;20058;-94
2023/10/01 15:32:16;;;;;;;6.63;3.10;;;;;;;;;;8230137;28;20046;-92
2023/10/01 16:15:02;;;;;;;27.08;9.48;;;;;;;;;;8232024;28;20573;-93
2023/10/01 16:19:24;;;;;;;15.70;6.15;;;;;;;;;;8169184;28;20051;-93
2023/10/01 16:37:47;;;;;;;30.80;11.75;;;;;;;;;;8261064;23;20147;-90
2023/10/01 16:47:30;;;;;;;33.85;13.38;;;;;;;;;;8132800;29;20052;-90
2023/10/01 16:52:02;;;;;;;32.20;13.23;;;;;;;;;;8121217;29;20051;-92
2023/10/01 16:56:30;;;;;;;97.00;41.95;;;;;;;;;;8120468;29;20147;-93
2023/10/01 17:00:37;;;;;;;60.83;23.65;;;;;;;;;;8138003;29;20218;-93
2023/10/01 17:09:11;;;;;;;32.67;14.23;;;;;;;;;;8131645;29;20048;-92
2023/10/01 17:13:18;;;;;;;43.30;16.60;;;;;;;;;;8133502;29;20048;-90
2023/10/01 17:17:22;;;;;;;26.95;12.35;;;;;;;;;;8231984;28;20495;-92
2023/10/01 17:21:36;;;;;;;13.40;7.25;;;;;;;;;;8263094;28;20046;-88
2023/10/01 17:26:02;;;;;;;29.33;14.02;;;;;;;;;;8244174;28;20509;-91
2023/10/01 17:30:18;;;;;;;19.77;9.60;;;;;;;;;;8267255;28;20042;-95
2023/10/01 17:34:27;;;;;;;12.98;6.10;;;;;;;;;;8258369;28;20058;-95
2023/10/01 17:38:34;;;;;;;16.95;7.68;;;;;;;;;;8251843;28;20136;-94
2023/10/01 17:42:39;;;;;;;10.85;4.75;;;;;;;;;;8267598;28;20062;-93
2023/10/01 17:46:45;;;;;;;20.65;9.68;;;;;;;;;;8267304;28;20039;-93
2023/10/01 17:50:50;;;;;;;19.65;7.38;;;;;;;;;;8266976;28;20042;-94
2023/10/01 17:54:59;;;;;;;11.68;6.03;;;;;;;;;;8268021;28;20110;-93
2023/10/01 17:59:02;;;;;;;12.80;6.00;;;;;;;;;;8264526;28;20482;-93
2023/10/01 18:03:14;;;;;;;8.88;5.00;;;;;;;;;;8242690;28;20042;-94
2023/10/01 18:07:29;;;;;;;9.88;5.05;;;;;;;;;;8263923;28;20057;-93
2023/10/01 18:11:34;;;;;;;8.70;5.03;;;;;;;;;;8249322;28;20046;-91
2023/10/01 18:15:39;;;;;;;10.00;5.07;;;;;;;;;;8260899;28;20043;-93
2023/10/01 18:19:50;;;;;;;10.15;4.97;;;;;;;;;;8244977;28;20061;-93
2023/10/01 18:23:55;;;;;;;;;;;;;;;;;;8264756;28;20417;-92
2023/10/01 18:28:00;;;;;;;13.40;6.10;;;;;;;;;;8258119;28;19928;-92
2023/10/01 18:32:05;;;;;;;41.20;17.38;;;;;;;;;;8256101;28;20137;-92
2023/10/01 18:36:19;;;;;;;36.63;15.35;;;;;;;;;;8257058;28;20116;-90
2023/10/01 18:40:23;;;;;;;23.92;10.65;;;;;;;;;;8250328;28;20046;-89
2023/10/01 18:44:28;;;;;;;16.42;8.82;;;;;;;;;;8276281;28;20058;-92
2023/10/01 18:48:40;;;;;;;14.98;7.45;;;;;;;;;;8257734;28;20042;-91
2023/10/01 18:53:03;;;;;;;31.17;19.70;;;;;;;;;;8253390;28;20498;-93
2023/10/01 18:57:10;;;;;;;14.07;7.80;;;;;;;;;;8256057;28;20120;-90
2023/10/01 19:01:18;;;;;;;14.85;6.25;;;;;;;;;;8266737;28;20080;-90
2023/10/01 19:05:27;;;;;;;38.50;23.75;;;;;;;;;;8280778;28;20534;-93
2023/10/01 19:09:34;;;;;;;23.83;14.10;;;;;;;;;;8281321;28;20054;-90
2023/10/01 19:13:39;;;;;;;20.73;12.75;;;;;;;;;;8254987;28;20042;-89
2023/10/01 19:17:47;;;;;;;15.68;9.90;;;;;;;;;;8254785;28;20062;-91
2023/10/01 19:21:55;;;;;;;19.35;12.10;;;;;;;;;;8238223;28;20077;-92
2023/10/01 19:26:06;;;;;;;21.45;13.63;;;;;;;;;;8278675;28;20046;-91
2023/10/01 19:30:12;;;;;;;30.30;19.05;;;;;;;;;;8276926;28;20050;-92
2023/10/01 19:34:22;;;;;;;32.83;19.80;;;;;;;;;;8264273;28;20189;-93
2023/10/01 19:38:28;;;;;;;19.67;12.02;;;;;;;;;;8247882;28;20727;-92
2023/10/01 19:42:41;;;;;;;20.45;10.73;;;;;;;;;;8270158;28;20066;-92
2023/10/01 19:46:45;;;;;;;20.33;9.38;;;;;;;;;;8237384;28;20363;-91
2023/10/01 19:50:52;;;;;;;20.25;10.20;;;;;;;;;;8269254;28;20078;-93
2023/10/01 19:54:56;;;;;;;16.35;8.95;;;;;;;;;;8253778;28;20096;-92
2023/10/01 19:59:09;;;;;;;19.30;9.30;;;;;;;;;;8268958;28;20061;-92
2023/10/01 20:03:14;;;;;;;11.20;6.40;;;;;;;;;;8266335;28;20047;-91
2023/10/01 20:07:28;;;;;;;12.48;5.78;;;;;;;;;;8265235;28;20050;-91
2023/10/01 20:11:32;;;;;;;11.30;5.85;;;;;;;;;;8252437;28;20125;-90
2023/10/01 20:15:38;;;;;;;13.35;6.05;;;;;;;;;;8247693;28;20043;-92
2023/10/01 20:19:43;;;;;;;10.65;6.18;;;;;;;;;;8264948;28;20077;-93
2023/10/01 20:23:46;;;;;;;11.05;7.22;;;;;;;;;;8265094;28;20050;-92
2023/10/01 20:27:50;;;;;;;13.75;7.03;;;;;;;;;;8264790;28;20050;-93
2023/10/01 20:32:02;;;;;;;9.00;6.13;;;;;;;;;;8270271;28;20478;-92
2023/10/01 20:36:05;;;;;;;12.68;6.88;;;;;;;;;;8253650;28;20054;-93
2023/10/01 20:40:10;;;;;;;9.25;5.82;;;;;;;;;;8270064;28;20130;-93
2023/10/01 20:44:15;;;;;;;15.13;5.75;;;;;;;;;;8270534;28;20125;-93
2023/10/01 20:52:36;;;;;;;9.30;5.78;;;;;;;;;;8269507;28;20550;-93
2023/10/01 20:56:42;;;;;;;10.48;5.50;;;;;;;;;;8253213;28;20046;-93
2023/10/01 21:00:50;;;;;;;15.25;5.95;;;;;;;;;;8270110;28;20070;-92
2023/10/01 21:04:54;;;;;;;10.05;5.68;;;;;;;;;;8274693;28;20046;-94
2023/10/01 21:08:58;;;;;;;12.07;5.53;;;;;;;;;;8274843;28;20104;-92
2023/10/01 21:13:00;;;;;;;10.60;5.93;;;;;;;;;;8254364;28;20482;-91
2023/10/01 21:17:08;;;;;;;13.98;5.78;;;;;;;;;;8269817;28;20450;-92
2023/10/01 21:21:12;;;;;;;16.00;6.55;;;;;;;;;;8252278;28;20132;-92
2023/10/01 21:25:22;;;;;;;14.40;6.22;;;;;;;;;;8251544;28;20042;-91
2023/10/01 21:29:34;;;;;;;11.35;5.55;;;;;;;;;;8249496;28;20062;-91
2023/10/01 21:33:37;;;;;;;12.23;6.17;;;;;;;;;;8267870;28;20104;-91
2023/10/01 21:37:42;;;;;;;11.70;5.32;;;;;;;;;;8268034;28;20050;-92
2023/10/01 21:41:49;;;;;;;16.10;5.35;;;;;;;;;;8249849;28;20552;-92
2023/10/01 21:46:02;;;;;;;7.90;4.93;;;;;;;;;;8251446;28;20129;-91
2023/10/01 21:50:10;;;;;;;9.45;4.78;;;;;;;;;;8259928;28;20050;-92
2023/10/01 21:54:22;;;;;;;11.07;5.55;;;;;;;;;;8255712;28;20066;-91
2023/10/01 21:58:27;;;;;;;14.05;5.18;;;;;;;;;;8250262;28;20054;-92
2023/10/01 22:02:31;;;;;;;7.72;4.82;;;;;;;;;;8266879;28;20138;-91
2023/10/01 22:06:37;;;;;;;9.68;5.38;;;;;;;;;;8250245;28;20513;-91
2023/10/01 22:10:41;;;;;;;11.38;5.15;;;;;;;;;;8266413;28;20042;-92
2023/10/01 22:14:44;;;;;;;10.13;4.85;;;;;;;;;;8267396;28;20443;-91
2023/10/01 22:18:48;;;;;;;12.32;5.90;;;;;;;;;;8266594;28;20130;-90
2023/10/01 22:22:51;;;;;;;10.02;5.60;;;;;;;;;;8249762;28;20058;-91
2023/10/01 22:26:56;;;;;;;12.68;5.40;;;;;;;;;;8249515;28;20092;-90
2023/10/01 22:31:00;;;;;;;10.95;5.13;;;;;;;;;;8266222;28;20057;-90
2023/10/01 22:35:07;;;;;;;10.38;5.75;;;;;;;;;;8265463;28;20042;-91
2023/10/01 22:39:13;;;;;;;12.70;6.03;;;;;;;;;;8258043;28;20463;-90
2023/10/01 22:43:21;;;;;;;11.77;6.05;;;;;;;;;;8253965;28;20086;-91
2023/10/01 22:47:25;;;;;;;16.27;7.15;;;;;;;;;;8265958;28;20134;-92
2023/10/01 22:51:30;;;;;;;15.02;6.38;;;;;;;;;;8255119;28;20476;-91
2023/10/01 22:55:33;;;;;;;11.32;5.78;;;;;;;;;;8232127;28;20149;-92
2023/10/01 22:59:41;;;;;;;11.63;7.65;;;;;;;;;;8247477;28;20046;-92
2023/10/01 23:03:43;;;;;;;10.75;5.32;;;;;;;;;;8263818;28;20034;-91
2023/10/01 23:07:47;;;;;;;11.20;5.82;;;;;;;;;;8257362;28;20503;-89
2023/10/01 23:11:53;;;;;;;11.05;5.57;;;;;;;;;;8264523;28;20042;-91
2023/10/01 23:16:15;;;;;;;10.63;5.63;;;;;;;;;;8262362;28;20070;-92
2023/10/01 23:20:18;;;;;;;9.85;5.80;;;;;;;;;;8257055;28;20811;-91
2023/10/01 23:24:40;;;;;;;11.60;5.72;;;;;;;;;;8262355;28;20482;-91
2023/10/01 23:28:44;;;;;;;9.52;5.90;;;;;;;;;;8233042;28;20101;-91
2023/10/01 23:32:59;;;;;;;12.18;5.43;;;;;;;;;;8245645;28;20418;-91
2023/10/01 23:37:11;;;;;;;13.95;5.70;;;;;;;;;;8263634;28;20050;-90
2023/10/01 23:45:56;;;;;;;12.00;5.25;;;;;;;;;;8247784;28;20057;-90
2023/10/01 23:50:00;;;;;;;9.80;4.70;;;;;;;;;;8264229;28;20046;-92
2023/10/01 23:54:19;;;;;;;11.00;5.80;;;;;;;;;;8259479;28;20096;-92
2023/10/01 23:58:23;;;;;;;12.77;5.03;;;;;;;;;;8255663;28;20162;-91
